Details From PAKT - KETCHIKAN INTL
To PAPG - PETERSBURG JAMES A JOHNSON
Flight Number -
Tags generated
Created
Modified
Stats Distance 98 nm / 181 km
Max Altitude 8,100 ft / 2,469 m
Waypoints 3
Social Downloads 1
Likes 0
Share VATSIM

Download

Looking for another format? Having issues loading an existing format? Contact us
Advertisement - Login to hide

Notes

Basic altitude profile: - Ascent Rate: 1000ft/min - Ascent Speed: 120kts - Cruise Altitude: 5000ft - Cruise Speed: 205kts - Descent Rate: 900ft/min - Descent Speed: 105kts Options: - Use NATs: yes - Use PACOTS: yes - Use low airways: yes - Use high airways: yes

Route

PAKT DOOZI PAPG

ID Type Via Altitude Latitude Longitude Leg Dist Tot Dist Heading (true) Name
O PAKT APT - 0 ft / 0 m 55.35554˚ -131.71374˚ - 0 nm - KETCHIKAN INTL
DOOZI FIX - 8,100 ft / 2,469 m 55.63254˚ -132.17465˚ 22 nm 22 nm 317° / 317° -
O PAPG APT - 0 ft / 0 m 56.80165˚ -132.94529˚ 74 nm 97 nm 340° / 340° PETERSBURG JAMES A JOHNSON

Altitude Profile

Advertisement - Login to hide

PAKT

Details ICAO PAKT (KTN)
Name KETCHIKAN INTL
Region USA (Alaska)
Timezone Unknown (UTC+0.0)
Stats Elevation 88 ft / 27 m (AMSL)
Location 55.355545° -131.713737°
Runways 1
Magnetic Variation 18.535° E

METAR

PAKT 120253Z 13010KT 10SM CLR 11/01 A2999

Decode

TAF

TAF AMD PAKT 120313Z 1203/1224 14012KT P6SM BKN200 WS020/15045KT FM120800 15015G25KT P6SM -RA BKN050 OVC080 WS020/16040KT FM121400 14010KT P6SM -RA BKN015 OVC030 AMD LTD TO CLD VIS AND WIND 1207/1215

Decode

Departure Runways

ID Width Length Bearing (true) Bearing (mag) Surface Threshold Offset Overrun Length
11 150 ft / 46 m 7,485 ft / 2,281 m 135.66° 117.12° Asphalt 0 ft / 0 m 200 ft / 61 m
29 150 ft / 46 m 7,485 ft / 2,281 m 315.68° 297.14° Asphalt 0 ft / 0 m 100 ft / 30 m

PAPG

Details ICAO PAPG (PSG)
Name PETERSBURG JAMES A JOHNSON
Region USA (Alaska)
Timezone America/Juneau (UTC-9.0)
Stats Elevation 105 ft / 32 m (AMSL)
Location 56.801651° -132.945289°
Runways 1
Magnetic Variation 18.868° E

METAR

PAPG 120256Z 00000KT 10SM FEW100 04/02 A2991 RMK AO2 SLP134 T00390017 58024 $

Decode

TAF

TAF PAPG 112326Z 1200/1224 22006KT P6SM OVC040 WS020/18030KT FM120900 13004KT 4SM -RA BR BKN020 OVC030 WS020/15035KT AMD LTD TO CLD VIS AND WIND 1207/1215

Decode

Destination Runways

ID Width Length Bearing (true) Bearing (mag) Surface Threshold Offset Overrun Length
04 150 ft / 46 m 5,982 ft / 1,823 m 70.70° 51.83° Asphalt 0 ft / 0 m 0 ft / 0 m
22 150 ft / 46 m 5,982 ft / 1,823 m 250.73° 231.86° Asphalt 0 ft / 0 m 0 ft / 0 m

Approach Navaids

Runway Type Ident Frequency Range Bearing (true) Bearing (mag) Slope Elevation
22 Localiser IPSG 110.50 MHz 18 nm / 33 km 185.00° 166.13° - 151 ft / 46 m (AMSL)
22 DME IPSG 110.50 MHz 18 nm / 33 km - - - 164 ft / 50 m (AMSL)

Popular Alternatives